Time;durP1;ratioP1;P1;durP2;ratioP2;P2;SDS_P1;SDS_P2;PMS_P1;PMS_P2;Temp;Humidity;BMP_temperature;BMP_pressure;BME280_temperature;BME280_humidity;BME280_pressure;Samples;Min_cycle;Max_cycle;Signal;HPM_P1;HPM_P2
2022/09/16 00:01:24;;;;;;;;;;;;;;;;;;5094671;28;19930;-51
2022/09/16 00:03:55;;;;;;;;;;;;;;;;;;5094212;28;19932;-48
2022/09/16 00:06:24;;;;;;;;;;;;;;;;;;5094275;28;19924;-51
2022/09/16 00:08:55;;;;;;;;;;;;;;;;;;5093415;28;20405;-50
2022/09/16 00:11:22;;;;;;;;;;;;;;;;;;5094272;28;19969;-52
2022/09/16 00:13:49;;;;;;;;;;;;;;;;;;5094565;28;19931;-53
2022/09/16 00:16:19;;;;;;;;;;;;;;;;;;5094004;28;19928;-52
2022/09/16 00:18:47;;;;;;;;;;;;;;;;;;5094210;28;19931;-53
2022/09/16 00:21:14;;;;;;;;;;;;;;;;;;5094183;28;19924;-53
2022/09/16 00:23:42;;;;;;;;;;;;;;;;;;5094169;28;19928;-41
2022/09/16 00:26:09;;;;;;;;;;;;;;;;;;5093821;28;19924;-42
2022/09/16 00:28:36;;;;;;;;;;;;;;;;;;5094060;28;20022;-42
2022/09/16 00:31:03;;;;;;;;;;;;;;;;;;5093837;28;19932;-42
2022/09/16 00:33:31;;;;;;;;;;;;;;;;;;5094219;28;19931;-45
2022/09/16 00:36:05;;;;;;;;;;;;;;;;;;5093755;28;19924;-42
2022/09/16 00:38:33;;;;;;;;;;;;;;;;;;5093829;28;19936;-42
2022/09/16 00:41:00;;;;;;;;;;;;;;;;;;5093943;28;19928;-42
2022/09/16 00:43:27;;;;;;;;;;;;;;;;;;5093576;28;19931;-41
2022/09/16 00:45:58;;;;;;;;;;;;;;;;;;5093751;28;20387;-41
2022/09/16 00:48:27;;;;;;;;;;;;;;;;;;5093610;28;19924;-42
2022/09/16 00:51:03;;;;;;;;;;;;;;;;;;5093583;28;19931;-42
2022/09/16 00:53:35;;;;;;;;;;;;;;;;;;5093719;28;19924;-44
2022/09/16 00:56:14;;;;;;;;;;;;;;;;;;5093213;28;19947;-42
2022/09/16 00:58:54;;;;;;;;;;;;;;;;;;5093546;28;20452;-46
2022/09/16 01:01:22;;;;;;;;;;;;;;;;;;5093493;28;19932;-41
2022/09/16 01:03:51;;;;;;;;;;;;;;;;;;5093302;28;19924;-44
2022/09/16 01:06:20;;;;;;;;;;;;;;;;;;5093121;28;20061;-42
2022/09/16 01:08:48;;;;;;;;;;;;;;;;;;5093137;28;19924;-42
2022/09/16 01:11:16;;;;;;;;;;;;;;;;;;5093263;28;19947;-42
2022/09/16 01:13:46;;;;;;;;;;;;;;;;;;5093215;28;19924;-42
2022/09/16 01:16:33;;;;;;;;;;;;;;;;;;5091782;28;19967;-42
2022/09/16 01:19:30;;;;;;;;;;;;;;;;;;5092946;28;19924;-41
2022/09/16 01:22:01;;;;;;;;;;;;;;;;;;5092914;28;20391;-42
2022/09/16 01:24:47;;;;;;;;;;;;;;;;;;5092993;28;19931;-42
2022/09/16 01:27:30;;;;;;;;;;;;;;;;;;5092860;28;19973;-43
2022/09/16 01:30:04;;;;;;;;;;;;;;;;;;5092872;28;19970;-41
2022/09/16 01:32:37;;;;;;;;;;;;;;;;;;5093075;28;20442;-43
2022/09/16 01:35:19;;;;;;;;;;;;;;;;;;5092936;28;20352;-43
2022/09/16 01:37:52;;;;;;;;;;;;;;;;;;5092764;28;19924;-42
2022/09/16 01:40:19;;;;;;;;;;;;;;;;;;5092625;28;19947;-42
2022/09/16 01:42:46;;;;;;;;;;;;;;;;;;5092841;28;19930;-42
2022/09/16 01:45:20;;;;;;;;;;;;;;;;;;5091393;28;19970;-41
2022/09/16 01:47:57;;;;;;;;;;;;;;;;;;5092715;28;19924;-42
2022/09/16 01:50:42;;;;;;;;;;;;;;;;;;5092568;28;19954;-42
2022/09/16 01:53:18;;;;;;;;;;;;;;;;;;5092585;28;19966;-42
2022/09/16 01:56:12;;;;;;;;;;;;;;;;;;5092568;28;20022;-43
2022/09/16 01:58:56;;;;;;;;;;;;;;;;;;5090490;28;20014;-42
2022/09/16 02:01:44;;;;;;;;;;;;;;;;;;5092701;28;19979;-42
2022/09/16 02:04:35;;;;;;;;;;;;;;;;;;5092413;28;20368;-42
2022/09/16 02:07:04;;;;;;;;;;;;;;;;;;5087246;28;19928;-41
2022/09/16 02:09:34;;;;;;;;;;;;;;;;;;5092414;28;20002;-41
2022/09/16 02:12:04;;;;;;;;;;;;;;;;;;5092203;28;19924;-42
2022/09/16 02:14:34;;;;;;;;;;;;;;;;;;5092517;28;20391;-42
2022/09/16 02:17:14;;;;;;;;;;;;;;;;;;5092413;28;20418;-42
2022/09/16 02:19:47;;;;;;;;;;;;;;;;;;5072313;28;19946;-41
2022/09/16 02:22:17;;;;;;;;;;;;;;;;;;5072160;28;19964;-42
2022/09/16 02:24:46;;;;;;;;;;;;;;;;;;5071776;28;20368;-41
2022/09/16 02:27:16;;;;;;;;;;;;;;;;;;5071840;28;19930;-41
2022/09/16 02:29:46;;;;;;;;;;;;;;;;;;5074838;28;19939;-41
2022/09/16 02:32:14;;;;;;;;;;;;;;;;;;5095382;28;19924;-40
2022/09/16 02:34:43;;;;;;;;;;;;;;;;;;5096392;28;19946;-43
2022/09/16 02:37:13;;;;;;;;;;;;;;;;;;5096165;28;20306;-41
2022/09/16 02:39:45;;;;;;;;;;;;;;;;;;5096121;28;20354;-42
2022/09/16 02:42:13;;;;;;;;;;;;;;;;;;5095799;28;19924;-42
2022/09/16 02:44:40;;;;;;;;;;;;;;;;;;5096072;28;19984;-41
2022/09/16 02:47:26;;;;;;;;;;;;;;;;;;5096175;28;19967;-43
2022/09/16 02:50:04;;;;;;;;;;;;;;;;;;5095931;28;19924;-42
2022/09/16 02:52:39;;;;;;;;;;;;;;;;;;5095849;28;19946;-42
2022/09/16 02:55:14;;;;;;;;;;;;;;;;;;5095896;28;20006;-42
2022/09/16 02:57:41;;;;;;;;;;;;;;;;;;5095709;28;20737;-42
2022/09/16 03:00:09;;;;;;;;;;;;;;;;;;5095617;28;19935;-41
2022/09/16 03:02:36;;;;;;;;;;;;;;;;;;5095811;28;19969;-41
2022/09/16 03:05:04;;;;;;;;;;;;;;;;;;5095626;28;19924;-41
2022/09/16 03:07:31;;;;;;;;;;;;;;;;;;5095237;28;20003;-42
2022/09/16 03:09:58;;;;;;;;;;;;;;;;;;5094078;28;20427;-41
2022/09/16 03:12:44;;;;;;;;;;;;;;;;;;5095625;28;19947;-41
2022/09/16 03:15:18;;;;;;;;;;;;;;;;;;5095448;28;20010;-40
2022/09/16 03:17:54;;;;;;;;;;;;;;;;;;5095301;28;19928;-41
2022/09/16 03:20:28;;;;;;;;;;;;;;;;;;5095281;28;19932;-40
2022/09/16 03:23:08;;;;;;;;;;;;;;;;;;5095336;28;20015;-41
2022/09/16 03:25:54;;;;;;;;;;;;;;;;;;5094298;28;20312;-43
2022/09/16 03:28:29;;;;;;;;;;;;;;;;;;5093705;28;20038;-41
2022/09/16 03:30:59;;;;;;;;;;;;;;;;;;5095022;28;19924;-40
2022/09/16 03:33:34;;;;;;;;;;;;;;;;;;5095123;28;20306;-42
2022/09/16 03:36:04;;;;;;;;;;;;;;;;;;5095025;28;19928;-41
2022/09/16 03:38:32;;;;;;;;;;;;;;;;;;5094879;28;20439;-42
2022/09/16 03:41:01;;;;;;;;;;;;;;;;;;5094858;28;19969;-41
2022/09/16 03:43:28;;;;;;;;;;;;;;;;;;5094783;28;19924;-40
2022/09/16 03:45:56;;;;;;;;;;;;;;;;;;5094672;28;19928;-41
2022/09/16 03:48:23;;;;;;;;;;;;;;;;;;5094847;28;19935;-41
2022/09/16 03:50:50;;;;;;;;;;;;;;;;;;5094630;28;20307;-46
2022/09/16 03:53:18;;;;;;;;;;;;;;;;;;5094663;28;19959;-41
2022/09/16 03:55:47;;;;;;;;;;;;;;;;;;5094682;28;19959;-45
2022/09/16 03:58:14;;;;;;;;;;;;;;;;;;5094670;28;19925;-41
2022/09/16 04:00:41;;;;;;;;;;;;;;;;;;5094936;28;19924;-41
2022/09/16 04:03:08;;;;;;;;;;;;;;;;;;5094590;28;19934;-45
2022/09/16 04:05:36;;;;;;;;;;;;;;;;;;5094268;28;19932;-44
2022/09/16 04:08:05;;;;;;;;;;;;;;;;;;5094078;28;19974;-41
2022/09/16 04:10:33;;;;;;;;;;;;;;;;;;5094187;28;19940;-39
2022/09/16 04:13:00;;;;;;;;;;;;;;;;;;5094269;28;19928;-42
2022/09/16 04:15:28;;;;;;;;;;;;;;;;;;5094368;28;19946;-42
2022/09/16 04:17:55;;;;;;;;;;;;;;;;;;5093936;28;19924;-40
2022/09/16 04:20:22;;;;;;;;;;;;;;;;;;5093961;28;20456;-41
2022/09/16 04:22:49;;;;;;;;;;;;;;;;;;5094330;28;19924;-41
2022/09/16 04:25:17;;;;;;;;;;;;;;;;;;5076021;28;19924;-41
2022/09/16 04:27:44;;;;;;;;;;;;;;;;;;5094294;28;20298;-41
2022/09/16 04:30:12;;;;;;;;;;;;;;;;;;5094071;28;20010;-41
2022/09/16 04:32:39;;;;;;;;;;;;;;;;;;5093999;28;19924;-41
2022/09/16 04:35:07;;;;;;;;;;;;;;;;;;5093979;28;19932;-41
2022/09/16 04:37:34;;;;;;;;;;;;;;;;;;5093817;28;19924;-41
2022/09/16 04:40:01;;;;;;;;;;;;;;;;;;5093814;28;19968;-42
2022/09/16 04:42:30;;;;;;;;;;;;;;;;;;5093793;28;19932;-41
2022/09/16 04:44:58;;;;;;;;;;;;;;;;;;5093714;28;19924;-44
2022/09/16 04:47:25;;;;;;;;;;;;;;;;;;5093454;28;19931;-40
2022/09/16 04:49:52;;;;;;;;;;;;;;;;;;5093562;28;19924;-41
2022/09/16 04:52:19;;;;;;;;;;;;;;;;;;5093377;28;20414;-40
2022/09/16 04:54:48;;;;;;;;;;;;;;;;;;5093071;28;19931;-40
2022/09/16 04:57:16;;;;;;;;;;;;;;;;;;5093756;28;20299;-42
2022/09/16 04:59:43;;;;;;;;;;;;;;;;;;5093529;28;19932;-41
2022/09/16 05:02:13;;;;;;;;;;;;;;;;;;5093588;28;19923;-41
2022/09/16 05:04:40;;;;;;;;;;;;;;;;;;5093442;28;19924;-41
2022/09/16 05:07:07;;;;;;;;;;;;;;;;;;5093242;28;19928;-40
2022/09/16 05:09:36;;;;;;;;;;;;;;;;;;5093093;28;20323;-43
2022/09/16 05:12:03;;;;;;;;;;;;;;;;;;5093226;28;20304;-41
2022/09/16 05:14:31;;;;;;;;;;;;;;;;;;5092983;28;20363;-43
2022/09/16 05:16:58;;;;;;;;;;;;;;;;;;5092073;28;20283;-39
2022/09/16 05:19:25;;;;;;;;;;;;;;;;;;5092903;28;19924;-41
2022/09/16 05:21:52;;;;;;;;;;;;;;;;;;5093036;28;20345;-40
2022/09/16 05:24:20;;;;;;;;;;;;;;;;;;5093049;28;20065;-40
2022/09/16 05:26:47;;;;;;;;;;;;;;;;;;5093022;28;19931;-40
2022/09/16 05:29:15;;;;;;;;;;;;;;;;;;5093075;28;19924;-42
2022/09/16 05:31:43;;;;;;;;;;;;;;;;;;5092808;28;20398;-41
2022/09/16 05:34:11;;;;;;;;;;;;;;;;;;5092784;28;19928;-41
2022/09/16 05:36:39;;;;;;;;;;;;;;;;;;5092804;28;20587;-41
2022/09/16 05:39:06;;;;;;;;;;;;;;;;;;5092600;28;19924;-41
2022/09/16 05:41:57;;;;;;;;;;;;;;;;;;5091331;28;20341;-41
2022/09/16 05:44:25;;;;;;;;;;;;;;;;;;5091281;28;20328;-42
2022/09/16 05:46:53;;;;;;;;;;;;;;;;;;5091694;28;19970;-41
2022/09/16 05:49:20;;;;;;;;;;;;;;;;;;5091830;28;20432;-41
2022/09/16 05:51:48;;;;;;;;;;;;;;;;;;5091799;28;19924;-41
2022/09/16 05:54:17;;;;;;;;;;;;;;;;;;5091820;28;19928;-42
2022/09/16 05:56:45;;;;;;;;;;;;;;;;;;5092932;28;19928;-41
2022/09/16 05:59:13;;;;;;;;;;;;;;;;;;5092538;28;19924;-41
2022/09/16 06:01:40;;;;;;;;;;;;;;;;;;5092594;28;19928;-41
2022/09/16 06:04:09;;;;;;;;;;;;;;;;;;5092391;28;19928;-41
2022/09/16 06:06:38;;;;;;;;;;;;;;;;;;5094754;28;19924;-52
2022/09/16 06:09:07;;;;;;;;;;;;;;;;;;5096456;28;19966;-41
2022/09/16 06:11:37;;;;;;;;;;;;;;;;;;5096638;28;19932;-42
2022/09/16 06:14:08;;;;;;;;;;;;;;;;;;5096554;28;19924;-41
2022/09/16 06:16:35;;;;;;;;;;;;;;;;;;5096529;28;19935;-42
2022/09/16 06:19:04;;;;;;;;;;;;;;;;;;5096386;28;20269;-41
2022/09/16 06:21:32;;;;;;;;;;;;;;;;;;5096642;28;19924;-41
2022/09/16 06:23:59;;;;;;;;;;;;;;;;;;5095163;28;20023;-40
2022/09/16 06:26:26;;;;;;;;;;;;;;;;;;5096456;28;19930;-42
2022/09/16 06:28:54;;;;;;;;;;;;;;;;;;5096320;28;19967;-42
2022/09/16 06:31:23;;;;;;;;;;;;;;;;;;5096197;28;19924;-41
2022/09/16 06:33:50;;;;;;;;;;;;;;;;;;5096385;28;19924;-42
2022/09/16 06:36:19;;;;;;;;;;;;;;;;;;5096301;28;20333;-40
2022/09/16 06:38:47;;;;;;;;;;;;;;;;;;5096602;28;19924;-41
2022/09/16 06:41:14;;;;;;;;;;;;;;;;;;5095960;28;19924;-40
2022/09/16 06:43:42;;;;;;;;;;;;;;;;;;5096214;28;19975;-40
2022/09/16 06:46:17;;;;;;;;;;;;;;;;;;5095731;28;20416;-41
2022/09/16 06:48:45;;;;;;;;;;;;;;;;;;5096061;28;19928;-41
2022/09/16 06:51:15;;;;;;;;;;;;;;;;;;5095886;28;19970;-40
2022/09/16 06:53:42;;;;;;;;;;;;;;;;;;5095860;28;20060;-41
2022/09/16 06:56:11;;;;;;;;;;;;;;;;;;5095849;28;19928;-45
2022/09/16 06:58:40;;;;;;;;;;;;;;;;;;5095501;28;20306;-43
2022/09/16 07:01:07;;;;;;;;;;;;;;;;;;5095910;28;19930;-43
2022/09/16 07:03:39;;;;;;;;;;;;;;;;;;5095664;28;19928;-42
2022/09/16 07:06:07;;;;;;;;;;;;;;;;;;5095504;28;20356;-41
2022/09/16 07:08:35;;;;;;;;;;;;;;;;;;5095476;28;20123;-43
2022/09/16 07:11:10;;;;;;;;;;;;;;;;;;5095488;28;19924;-42
2022/09/16 07:13:38;;;;;;;;;;;;;;;;;;5095553;28;19947;-42
2022/09/16 07:16:06;;;;;;;;;;;;;;;;;;5094994;28;20031;-43
2022/09/16 07:18:41;;;;;;;;;;;;;;;;;;5095346;28;19924;-45
2022/09/16 07:21:12;;;;;;;;;;;;;;;;;;5095289;28;19931;-43
2022/09/16 07:23:40;;;;;;;;;;;;;;;;;;5095298;28;20387;-43
2022/09/16 07:26:13;;;;;;;;;;;;;;;;;;5094989;28;20006;-42
2022/09/16 07:28:41;;;;;;;;;;;;;;;;;;5095358;28;19993;-44
2022/09/16 07:31:10;;;;;;;;;;;;;;;;;;5095009;28;19924;-42
2022/09/16 07:33:38;;;;;;;;;;;;;;;;;;5095261;28;20287;-42
2022/09/16 07:36:06;;;;;;;;;;;;;;;;;;5094978;28;19924;-42
2022/09/16 07:38:34;;;;;;;;;;;;;;;;;;5095182;28;19928;-41
2022/09/16 07:41:10;;;;;;;;;;;;;;;;;;5095022;28;20003;-41
2022/09/16 07:43:39;;;;;;;;;;;;;;;;;;5094918;28;19973;-49
2022/09/16 07:46:06;;;;;;;;;;;;;;;;;;5094679;28;19967;-42
2022/09/16 07:48:34;;;;;;;;;;;;;;;;;;5094578;28;19928;-43
2022/09/16 07:51:03;;;;;;;;;;;;;;;;;;5094819;28;19924;-43
2022/09/16 07:53:31;;;;;;;;;;;;;;;;;;5094764;28;19931;-42
2022/09/16 07:56:15;;;;;;;;;;;;;;;;;;5094642;28;19931;-46
2022/09/16 07:58:44;;;;;;;;;;;;;;;;;;5094701;28;19928;-42
2022/09/16 08:01:12;;;;;;;;;;;;;;;;;;5094567;28;20280;-44
2022/09/16 08:03:39;;;;;;;;;;;;;;;;;;5094444;28;19931;-43
2022/09/16 08:06:08;;;;;;;;;;;;;;;;;;5094374;28;19950;-45
2022/09/16 08:08:36;;;;;;;;;;;;;;;;;;5094325;28;19931;-44
2022/09/16 08:11:03;;;;;;;;;;;;;;;;;;5094217;28;20340;-42
2022/09/16 08:13:31;;;;;;;;;;;;;;;;;;5094321;28;19924;-42
2022/09/16 08:15:59;;;;;;;;;;;;;;;;;;5094273;28;19928;-42
2022/09/16 08:18:27;;;;;;;;;;;;;;;;;;5094598;28;19932;-42
2022/09/16 08:20:54;;;;;;;;;;;;;;;;;;5094447;28;19924;-42
2022/09/16 08:23:22;;;;;;;;;;;;;;;;;;5094312;28;20391;-41
2022/09/16 08:25:59;;;;;;;;;;;;;;;;;;5094237;28;19935;-45
2022/09/16 08:28:27;;;;;;;;;;;;;;;;;;5093206;28;20019;-44
2022/09/16 08:31:05;;;;;;;;;;;;;;;;;;5087693;28;19928;-42
2022/09/16 08:33:32;;;;;;;;;;;;;;;;;;5073853;28;20003;-42
2022/09/16 08:36:04;;;;;;;;;;;;;;;;;;5073895;28;19932;-41
2022/09/16 08:38:32;;;;;;;;;;;;;;;;;;5073553;28;19973;-42
2022/09/16 08:41:18;;;;;;;;;;;;;;;;;;5073574;28;19925;-42
2022/09/16 08:43:52;;;;;;;;;;;;;;;;;;5073674;28;19924;-43
2022/09/16 08:46:19;;;;;;;;;;;;;;;;;;5073433;28;20311;-41
2022/09/16 08:48:57;;;;;;;;;;;;;;;;;;5073656;28;20466;-43
2022/09/16 08:51:27;;;;;;;;;;;;;;;;;;5073541;28;19929;-44
2022/09/16 08:53:58;;;;;;;;;;;;;;;;;;5078704;28;19931;-45
2022/09/16 08:56:28;;;;;;;;;;;;;;;;;;5093788;28;20007;-43
2022/09/16 08:59:01;;;;;;;;;;;;;;;;;;5093873;28;19924;-44
2022/09/16 09:01:33;;;;;;;;;;;;;;;;;;5093488;28;19967;-43
2022/09/16 09:04:01;;;;;;;;;;;;;;;;;;5093543;28;20294;-43
2022/09/16 09:06:37;;;;;;;;;;;;;;;;;;5093509;28;19978;-43
2022/09/16 09:09:26;;;;;;;;;;;;;;;;;;5093275;28;19993;-43
2022/09/16 09:12:06;;;;;;;;;;;;;;;;;;5093223;28;19924;-47
2022/09/16 09:14:44;;;;;;;;;;;;;;;;;;5093374;28;20400;-43
2022/09/16 09:17:19;;;;;;;;;;;;;;;;;;5093350;28;19924;-43
2022/09/16 09:19:55;;;;;;;;;;;;;;;;;;5093039;28;19931;-44
2022/09/16 09:22:23;;;;;;;;;;;;;;;;;;5092919;28;20306;-44
2022/09/16 09:24:56;;;;;;;;;;;;;;;;;;5093044;28;20022;-44
2022/09/16 09:27:23;;;;;;;;;;;;;;;;;;5093088;28;19930;-43
2022/09/16 09:29:56;;;;;;;;;;;;;;;;;;5092700;28;19934;-42
2022/09/16 09:32:33;;;;;;;;;;;;;;;;;;5092922;28;19932;-44
2022/09/16 09:35:29;;;;;;;;;;;;;;;;;;5092767;28;20028;-44
2022/09/16 09:38:04;;;;;;;;;;;;;;;;;;5093084;28;19935;-42
2022/09/16 09:40:41;;;;;;;;;;;;;;;;;;5092657;28;20402;-43
2022/09/16 09:43:08;;;;;;;;;;;;;;;;;;5092669;28;19947;-44
2022/09/16 09:45:40;;;;;;;;;;;;;;;;;;5092710;28;19928;-43
2022/09/16 09:48:25;;;;;;;;;;;;;;;;;;5092619;28;19946;-43
2022/09/16 09:50:53;;;;;;;;;;;;;;;;;;5092821;28;20434;-44
2022/09/16 09:53:27;;;;;;;;;;;;;;;;;;5092658;28;19924;-43
2022/09/16 09:56:04;;;;;;;;;;;;;;;;;;5091336;28;19928;-43
2022/09/16 09:58:39;;;;;;;;;;;;;;;;;;5092694;28;19962;-43
2022/09/16 10:01:07;;;;;;;;;;;;;;;;;;5092473;28;19924;-44
2022/09/16 10:03:35;;;;;;;;;;;;;;;;;;5092628;28;20388;-43
2022/09/16 10:06:03;;;;;;;;;;;;;;;;;;5092356;28;19950;-44
2022/09/16 10:08:48;;;;;;;;;;;;;;;;;;5092418;28;20019;-44
2022/09/16 10:11:19;;;;;;;;;;;;;;;;;;5092611;28;20342;-44
2022/09/16 10:13:51;;;;;;;;;;;;;;;;;;5092468;28;19975;-45
2022/09/16 10:16:20;;;;;;;;;;;;;;;;;;5092319;28;19959;-45
2022/09/16 10:18:55;;;;;;;;;;;;;;;;;;5092471;28;19975;-44
2022/09/16 10:21:22;;;;;;;;;;;;;;;;;;5092397;28;20007;-43
2022/09/16 10:23:56;;;;;;;;;;;;;;;;;;5091299;28;20461;-43
2022/09/16 10:26:25;;;;;;;;;;;;;;;;;;5092252;28;20011;-44
2022/09/16 10:28:57;;;;;;;;;;;;;;;;;;5092369;28;19931;-43
2022/09/16 10:31:26;;;;;;;;;;;;;;;;;;5092227;28;20579;-43
2022/09/16 10:33:58;;;;;;;;;;;;;;;;;;5092572;28;20387;-44
2022/09/16 10:36:27;;;;;;;;;;;;;;;;;;5092461;28;19928;-44
2022/09/16 10:38:56;;;;;;;;;;;;;;;;;;5091119;28;19959;-43
2022/09/16 10:41:33;;;;;;;;;;;;;;;;;;5092139;28;19930;-42
2022/09/16 10:44:03;;;;;;;;;;;;;;;;;;5092305;28;20383;-44
2022/09/16 10:46:33;;;;;;;;;;;;;;;;;;5092213;28;20410;-46
2022/09/16 10:49:07;;;;;;;;;;;;;;;;;;5092384;28;19924;-43
2022/09/16 10:51:35;;;;;;;;;;;;;;;;;;5092625;28;19924;-43
2022/09/16 10:54:04;;;;;;;;;;;;;;;;;;5095696;28;20291;-43
2022/09/16 10:56:33;;;;;;;;;;;;;;;;;;5095953;28;20102;-45
2022/09/16 10:59:03;;;;;;;;;;;;;;;;;;5096125;28;19924;-45
2022/09/16 11:01:33;;;;;;;;;;;;;;;;;;5095953;28;19924;-47
2022/09/16 11:04:26;;;;;;;;;;;;;;;;;;5094538;28;20379;-44
2022/09/16 11:06:58;;;;;;;;;;;;;;;;;;5085270;28;19924;-43
2022/09/16 11:09:44;;;;;;;;;;;;;;;;;;5096364;28;20387;-45
2022/09/16 11:12:21;;;;;;;;;;;;;;;;;;5095600;28;20018;-44
2022/09/16 11:14:51;;;;;;;;;;;;;;;;;;5095483;28;20448;-46
2022/09/16 11:17:47;;;;;;;;;;;;;;;;;;5075059;28;20368;-43
2022/09/16 11:20:36;;;;;;;;;;;;;;;;;;5075106;28;19932;-43
2022/09/16 11:23:18;;;;;;;;;;;;;;;;;;5075010;28;19947;-44
2022/09/16 11:26:07;;;;;;;;;;;;;;;;;;5075438;28;19994;-43
2022/09/16 11:28:53;;;;;;;;;;;;;;;;;;5074907;28;20023;-43
2022/09/16 11:31:26;;;;;;;;;;;;;;;;;;5091412;28;20269;-44
2022/09/16 11:33:54;;;;;;;;;;;;;;;;;;5095085;28;19934;-43
2022/09/16 11:36:35;;;;;;;;;;;;;;;;;;5095101;28;20010;-43
2022/09/16 11:39:10;;;;;;;;;;;;;;;;;;5074767;28;19925;-44
2022/09/16 11:41:41;;;;;;;;;;;;;;;;;;5074680;28;19928;-43
2022/09/16 11:44:23;;;;;;;;;;;;;;;;;;5074633;28;19971;-43
2022/09/16 11:47:08;;;;;;;;;;;;;;;;;;5074817;28;20019;-44
2022/09/16 11:49:54;;;;;;;;;;;;;;;;;;5074708;28;19929;-46
2022/09/16 11:52:27;;;;;;;;;;;;;;;;;;5074454;28;19929;-44
2022/09/16 11:55:05;;;;;;;;;;;;;;;;;;5074447;28;20054;-45
2022/09/16 11:57:35;;;;;;;;;;;;;;;;;;5074465;28;19930;-44
2022/09/16 12:00:12;;;;;;;;;;;;;;;;;;5074341;28;20292;-44
2022/09/16 12:02:52;;;;;;;;;;;;;;;;;;5074272;28;20307;-43
2022/09/16 12:05:38;;;;;;;;;;;;;;;;;;5074358;28;19924;-45
2022/09/16 12:08:06;;;;;;;;;;;;;;;;;;5074027;28;19932;-47
2022/09/16 12:10:44;;;;;;;;;;;;;;;;;;5074477;28;19982;-44
2022/09/16 12:13:14;;;;;;;;;;;;;;;;;;5074060;28;19925;-43
2022/09/16 12:15:56;;;;;;;;;;;;;;;;;;5074163;28;19924;-44
2022/09/16 12:18:26;;;;;;;;;;;;;;;;;;5073994;28;19931;-43
2022/09/16 12:21:28;;;;;;;;;;;;;;;;;;5073813;28;20392;-44
2022/09/16 12:24:15;;;;;;;;;;;;;;;;;;5011785;28;20396;-45
2022/09/16 12:26:45;;;;;;;;;;;;;;;;;;5088914;28;19924;-44
2022/09/16 12:29:35;;;;;;;;;;;;;;;;;;5093660;28;19967;-46
2022/09/16 12:32:08;;;;;;;;;;;;;;;;;;5063458;28;19924;-45
2022/09/16 12:34:48;;;;;;;;;;;;;;;;;;5073508;28;19932;-45
2022/09/16 12:37:25;;;;;;;;;;;;;;;;;;5073484;28;19924;-45
2022/09/16 12:39:52;;;;;;;;;;;;;;;;;;5073424;28;19924;-46
2022/09/16 12:42:38;;;;;;;;;;;;;;;;;;5073284;28;20423;-47
2022/09/16 12:45:22;;;;;;;;;;;;;;;;;;5073216;28;20387;-46
2022/09/16 12:48:19;;;;;;;;;;;;;;;;;;5073246;28;19925;-46
2022/09/16 12:50:51;;;;;;;;;;;;;;;;;;5064582;28;20015;-46
2022/09/16 12:53:45;;;;;;;;;;;;;;;;;;5073374;28;19951;-42
2022/09/16 12:56:24;;;;;;;;;;;;;;;;;;5068587;28;20024;-46
2022/09/16 12:59:05;;;;;;;;;;;;;;;;;;5073326;28;20346;-45
2022/09/16 13:01:38;;;;;;;;;;;;;;;;;;5073267;28;20323;-46
2022/09/16 13:04:13;;;;;;;;;;;;;;;;;;5072919;28;19925;-45
2022/09/16 13:06:45;;;;;;;;;;;;;;;;;;5072998;28;19924;-44
2022/09/16 13:09:23;;;;;;;;;;;;;;;;;;5072797;28;19932;-46
2022/09/16 13:12:01;;;;;;;;;;;;;;;;;;5072876;28;20350;-44
2022/09/16 13:14:50;;;;;;;;;;;;;;;;;;5072426;28;19936;-45
2022/09/16 13:17:28;;;;;;;;;;;;;;;;;;5073039;28;19932;-45
2022/09/16 13:20:05;;;;;;;;;;;;;;;;;;5072861;28;20020;-43
2022/09/16 13:22:36;;;;;;;;;;;;;;;;;;5072722;28;19925;-44
2022/09/16 13:25:17;;;;;;;;;;;;;;;;;;5072724;28;20388;-45
2022/09/16 13:27:54;;;;;;;;;;;;;;;;;;5072656;28;19928;-44
2022/09/16 13:30:29;;;;;;;;;;;;;;;;;;5080645;28;19935;-43
2022/09/16 13:32:58;;;;;;;;;;;;;;;;;;5092925;28;19925;-44
2022/09/16 13:35:39;;;;;;;;;;;;;;;;;;5092954;28;20350;-42
2022/09/16 13:38:18;;;;;;;;;;;;;;;;;;5092647;28;20292;-43
2022/09/16 13:40:56;;;;;;;;;;;;;;;;;;5092751;28;19924;-49
2022/09/16 13:43:36;;;;;;;;;;;;;;;;;;5092644;28;20040;-44
2022/09/16 13:46:06;;;;;;;;;;;;;;;;;;5092568;28;19924;-44
2022/09/16 13:48:35;;;;;;;;;;;;;;;;;;5092593;28;20027;-47
2022/09/16 13:51:06;;;;;;;;;;;;;;;;;;5092621;28;19924;-44
2022/09/16 13:53:36;;;;;;;;;;;;;;;;;;5092600;28;19928;-49
2022/09/16 13:56:12;;;;;;;;;;;;;;;;;;5092297;28;19947;-44
2022/09/16 13:58:50;;;;;;;;;;;;;;;;;;5092555;28;19935;-45
2022/09/16 14:01:23;;;;;;;;;;;;;;;;;;5092355;28;19932;-46
2022/09/16 14:04:00;;;;;;;;;;;;;;;;;;5092277;28;19974;-45
2022/09/16 14:06:48;;;;;;;;;;;;;;;;;;5092625;28;19924;-46
2022/09/16 14:09:18;;;;;;;;;;;;;;;;;;5085427;28;20346;-45
2022/09/16 14:11:51;;;;;;;;;;;;;;;;;;5092266;28;19924;-43
2022/09/16 14:14:21;;;;;;;;;;;;;;;;;;5092425;28;19956;-43
2022/09/16 14:17:17;;;;;;;;;;;;;;;;;;5092469;28;19928;-43
2022/09/16 14:19:47;;;;;;;;;;;;;;;;;;5092386;28;20276;-43
2022/09/16 14:22:20;;;;;;;;;;;;;;;;;;5092231;28;20391;-43
2022/09/16 14:24:48;;;;;;;;;;;;;;;;;;5092426;28;19924;-43
2022/09/16 14:27:29;;;;;;;;;;;;;;;;;;5094283;28;19928;-45
2022/09/16 14:29:58;;;;;;;;;;;;;;;;;;5096407;28;19924;-46
2022/09/16 14:32:27;;;;;;;;;;;;;;;;;;5096129;28;20376;-45
2022/09/16 14:34:55;;;;;;;;;;;;;;;;;;5096075;28;19924;-46
2022/09/16 14:37:24;;;;;;;;;;;;;;;;;;5096217;28;19924;-44
2022/09/16 14:39:52;;;;;;;;;;;;;;;;;;5096177;28;19938;-47
2022/09/16 14:42:21;;;;;;;;;;;;;;;;;;5094643;28;19928;-55
2022/09/16 14:44:51;;;;;;;;;;;;;;;;;;5096135;28;19963;-44
2022/09/16 14:47:28;;;;;;;;;;;;;;;;;;5095937;28;19934;-43
2022/09/16 14:50:19;;;;;;;;;;;;;;;;;;5095817;28;19925;-43
2022/09/16 14:52:58;;;;;;;;;;;;;;;;;;5095759;28;19930;-45
2022/09/16 14:55:28;;;;;;;;;;;;;;;;;;5095869;28;19930;-43
2022/09/16 14:57:57;;;;;;;;;;;;;;;;;;5095647;28;20464;-45
2022/09/16 15:00:26;;;;;;;;;;;;;;;;;;5095487;28;19928;-44
2022/09/16 15:03:00;;;;;;;;;;;;;;;;;;5095654;28;19931;-45
2022/09/16 15:05:34;;;;;;;;;;;;;;;;;;5095909;28;20014;-44
2022/09/16 15:08:07;;;;;;;;;;;;;;;;;;5095292;28;20023;-43
2022/09/16 15:10:40;;;;;;;;;;;;;;;;;;5095508;28;19924;-47
2022/09/16 15:13:19;;;;;;;;;;;;;;;;;;5095377;28;19978;-43
2022/09/16 15:15:51;;;;;;;;;;;;;;;;;;5095528;28;19924;-43
2022/09/16 15:18:37;;;;;;;;;;;;;;;;;;5095266;28;20007;-46
2022/09/16 15:21:16;;;;;;;;;;;;;;;;;;5095433;28;19924;-43
2022/09/16 15:23:46;;;;;;;;;;;;;;;;;;5095233;28;19924;-44
2022/09/16 15:26:16;;;;;;;;;;;;;;;;;;5095171;28;19971;-44
2022/09/16 15:28:51;;;;;;;;;;;;;;;;;;5095266;28;20381;-44
2022/09/16 15:31:28;;;;;;;;;;;;;;;;;;5094710;28;19924;-46
2022/09/16 15:33:57;;;;;;;;;;;;;;;;;;5095042;28;19931;-44
2022/09/16 15:36:32;;;;;;;;;;;;;;;;;;5093864;28;19928;-43
2022/09/16 15:38:59;;;;;;;;;;;;;;;;;;5094917;28;19928;-49
2022/09/16 15:41:29;;;;;;;;;;;;;;;;;;5094904;28;19946;-47
2022/09/16 15:43:57;;;;;;;;;;;;;;;;;;5094866;28;19928;-44
2022/09/16 15:46:25;;;;;;;;;;;;;;;;;;5093491;28;19924;-44
2022/09/16 15:48:59;;;;;;;;;;;;;;;;;;5094780;28;20034;-52
2022/09/16 15:51:29;;;;;;;;;;;;;;;;;;5094601;28;19947;-43
2022/09/16 15:54:13;;;;;;;;;;;;;;;;;;5094624;28;19924;-43
2022/09/16 15:56:57;;;;;;;;;;;;;;;;;;5094549;28;19962;-43
2022/09/16 15:59:28;;;;;;;;;;;;;;;;;;5094722;28;20399;-45
2022/09/16 16:01:57;;;;;;;;;;;;;;;;;;5094499;28;19931;-44
2022/09/16 16:04:26;;;;;;;;;;;;;;;;;;5094277;28;19929;-45
2022/09/16 16:06:58;;;;;;;;;;;;;;;;;;5094453;28;19982;-45
2022/09/16 16:09:26;;;;;;;;;;;;;;;;;;5094200;28;19924;-43
2022/09/16 16:11:56;;;;;;;;;;;;;;;;;;5094131;28;19928;-46
2022/09/16 16:14:31;;;;;;;;;;;;;;;;;;5094030;28;19928;-44
2022/09/16 16:17:04;;;;;;;;;;;;;;;;;;5094332;28;19924;-44
2022/09/16 16:19:41;;;;;;;;;;;;;;;;;;5094090;28;19924;-53
2022/09/16 16:22:08;;;;;;;;;;;;;;;;;;5093925;28;19931;-56
2022/09/16 16:24:37;;;;;;;;;;;;;;;;;;5094222;28;19974;-53
2022/09/16 16:27:05;;;;;;;;;;;;;;;;;;5094182;28;20426;-54
2022/09/16 16:29:32;;;;;;;;;;;;;;;;;;5093897;28;19925;-52
2022/09/16 16:32:10;;;;;;;;;;;;;;;;;;5093876;28;19932;-53
2022/09/16 16:34:38;;;;;;;;;;;;;;;;;;5093644;28;19924;-51
2022/09/16 16:37:06;;;;;;;;;;;;;;;;;;5094001;28;19924;-53
2022/09/16 16:39:34;;;;;;;;;;;;;;;;;;5093817;28;19973;-44
2022/09/16 16:42:03;;;;;;;;;;;;;;;;;;5093880;28;19924;-43
2022/09/16 16:44:31;;;;;;;;;;;;;;;;;;5093545;28;20384;-54
2022/09/16 16:46:59;;;;;;;;;;;;;;;;;;5093471;28;19924;-47
2022/09/16 16:49:26;;;;;;;;;;;;;;;;;;5092556;28;20447;-54
2022/09/16 16:51:56;;;;;;;;;;;;;;;;;;5093548;28;19931;-50
2022/09/16 16:54:24;;;;;;;;;;;;;;;;;;5093324;28;20345;-50
2022/09/16 16:56:52;;;;;;;;;;;;;;;;;;5093504;28;19930;-54
2022/09/16 16:59:19;;;;;;;;;;;;;;;;;;5093171;28;20387;-49
2022/09/16 17:01:49;;;;;;;;;;;;;;;;;;5093446;28;19933;-50
2022/09/16 17:04:16;;;;;;;;;;;;;;;;;;5093266;28;19970;-51
2022/09/16 17:06:44;;;;;;;;;;;;;;;;;;5093319;28;19931;-55
2022/09/16 17:09:12;;;;;;;;;;;;;;;;;;5092774;28;19973;-53
2022/09/16 17:11:50;;;;;;;;;;;;;;;;;;5093397;28;19946;-54
2022/09/16 17:14:20;;;;;;;;;;;;;;;;;;5093012;28;19924;-51
2022/09/16 17:16:48;;;;;;;;;;;;;;;;;;5093339;28;20015;-50
2022/09/16 17:19:16;;;;;;;;;;;;;;;;;;5092952;28;19993;-53
2022/09/16 17:21:48;;;;;;;;;;;;;;;;;;5092997;28;19934;-53